Gitana — WDF9396 — position and weather

sailwx.info

Track history (hours):
 
Tides and Currents Weather Stations Pressure Air Temp Water Temp Dewpoint Dewpoint Depression Visibility Wind Speed Wind Dir Waves Ship Positions

Gitana

Owner: Gitana LLC a Delaware Manager Managed Limited Liability Company, Fresno, CA. More information available from US FCC via Universal Licensing System.

Last reported at 2017-Oct-02 03:29 UTC. Time now 2017-Oct-20 14:32 UTC.
Position N 48°37' W 123°09'.
Warning: this ship's position is 18 days out of date.

Length 23 m; draft 2.5 m.

MMSI: 367504720.

Date/timePositionNaut miles runAvg speedWind from/ knotsBaromVisibWave heightAir tempDewpointWater temp
2017-Oct-02 03:29N 48°37' W 123°09'3 0.4
2017-Oct-01 18:07N 48°38' W 123°14'1 8.1
2017-Oct-01 18:00N 48°38' W 123°12'3 5.0
2017-Oct-01 17:30N 48°37' W 123°09'0 0.0
2017-Oct-01 17:00N 48°37' W 123°09'0 0.0
2017-Oct-01 16:22N 48°37' W 123°09'0 0.4
2017-Oct-01 16:00N 48°37' W 123°09'0 0.0
2017-Oct-01 15:30N 48°37' W 123°09'0 0.0
2017-Oct-01 15:01N 48°37' W 123°09'0 0.0
2017-Oct-01 14:30N 48°37' W 123°09'0 0.0
2017-Oct-01 14:00N 48°37' W 123°09'0 0.0
2017-Oct-01 13:30N 48°37' W 123°09'0 0.0
2017-Oct-01 13:00N 48°37' W 123°09'0 0.0
2017-Oct-01 12:30N 48°37' W 123°09'0 0.0
2017-Oct-01 12:01N 48°37' W 123°09'0 0.0
2017-Oct-01 11:31N 48°37' W 123°09'0 0.0
2017-Oct-01 11:01N 48°37' W 123°09'0 0.0
2017-Oct-01 10:31N 48°37' W 123°09'0 0.0
2017-Oct-01 10:01N 48°37' W 123°09'0 0.0
2017-Oct-01 09:31N 48°37' W 123°09'0 0.0
2017-Oct-01 08:59N 48°37' W 123°09'0 0.0
2017-Oct-01 08:30N 48°37' W 123°09'0 0.0
2017-Oct-01 07:58N 48°37' W 123°09'0 0.0
2017-Oct-01 07:30N 48°37' W 123°09'0 0.0
2017-Oct-01 07:00N 48°37' W 123°09'0 0.0
2017-Oct-01 06:30N 48°37' W 123°09'0 0.0
2017-Oct-01 06:00N 48°37' W 123°09'0 0.0
2017-Oct-01 05:31N 48°37' W 123°09'0 0.0
2017-Oct-01 05:00N 48°37' W 123°09'0 0.0
2017-Oct-01 04:31N 48°37' W 123°09'0 0.0
2017-Oct-01 04:00N 48°37' W 123°09'0 0.0
2017-Oct-01 03:30N 48°37' W 123°09'0 0.0
2017-Oct-01 03:00N 48°37' W 123°09'41 1.6
2017-Sep-30 02:00N 49°18' W 123°08'0 0.0
2017-Sep-30 01:30N 49°18' W 123°08'0 0.0
2017-Sep-30 01:00N 49°18' W 123°08'0 0.0
2017-Sep-30 00:30N 49°18' W 123°08'0 0.0
2017-Sep-30 00:00N 49°18' W 123°08'0 0.0
2017-Sep-29 23:31N 49°18' W 123°08'0 0.0
2017-Sep-29 23:01N 49°18' W 123°08'0 0.0
2017-Sep-29 22:30N 49°18' W 123°08'0 0.0
2017-Sep-29 22:01N 49°18' W 123°08'0 0.0
2017-Sep-29 21:30N 49°18' W 123°08'0 0.0
2017-Sep-29 21:00N 49°18' W 123°08'0 0.0
2017-Sep-29 20:31N 49°18' W 123°08'0 0.0
2017-Sep-29 20:01N 49°18' W 123°08'0 0.0
2017-Sep-29 19:31N 49°18' W 123°08'0 0.0
2017-Sep-29 19:00N 49°18' W 123°08'0 0.0
2017-Sep-29 18:30N 49°18' W 123°08'0 0.0
2017-Sep-29 18:00N 49°18' W 123°08'0 0.0
2017-Sep-29 17:30N 49°18' W 123°08'0 0.0
2017-Sep-29 17:00N 49°18' W 123°08'0 0.0
2017-Sep-29 16:31N 49°18' W 123°08'0 0.0
2017-Sep-29 16:00N 49°18' W 123°08'0 0.0
2017-Sep-29 15:31N 49°18' W 123°08'0 0.0
2017-Sep-29 15:00N 49°18' W 123°08'0 0.0
2017-Sep-29 14:30N 49°18' W 123°08'0 0.0
2017-Sep-29 14:00N 49°18' W 123°08'0 0.0
2017-Sep-29 13:30N 49°18' W 123°08'0 0.0
2017-Sep-29 13:01N 49°18' W 123°08'0 0.0
2017-Sep-29 12:31N 49°18' W 123°08'0 0.0
2017-Sep-29 12:00N 49°18' W 123°08'0 0.0
2017-Sep-29 11:30N 49°18' W 123°08'0 0.0
2017-Sep-29 11:01N 49°18' W 123°08'0 0.0
2017-Sep-29 10:31N 49°18' W 123°08'0 0.0
2017-Sep-29 10:00N 49°18' W 123°08'0 0.0
2017-Sep-29 09:31N 49°18' W 123°08'0 0.0
2017-Sep-29 09:01N 49°18' W 123°08'0 0.0
2017-Sep-29 08:30N 49°18' W 123°08'0 0.0
2017-Sep-29 08:00N 49°18' W 123°08'0 0.0
2017-Sep-29 07:30N 49°18' W 123°08'0 0.0
2017-Sep-29 07:00N 49°18' W 123°08'0 0.0
2017-Sep-29 06:30N 49°18' W 123°08'0 0.0
2017-Sep-29 06:01N 49°18' W 123°08'0 0.0
2017-Sep-29 05:30N 49°18' W 123°08'0 0.0
2017-Sep-29 05:01N 49°18' W 123°08'0 0.0
2017-Sep-29 04:31N 49°18' W 123°08'0 0.0
2017-Sep-29 04:00N 49°18' W 123°08'0 0.0
2017-Sep-29 03:31N 49°18' W 123°08'0 0.0
2017-Sep-29 03:01N 49°18' W 123°08'0 0.0
2017-Sep-29 02:31N 49°18' W 123°08'0 0.0
2017-Sep-29 02:01N 49°18' W 123°08'0 0.0
2017-Sep-29 01:30N 49°18' W 123°08'0 0.0
2017-Sep-29 01:00N 49°18' W 123°08'0 0.0
2017-Sep-29 00:31N 49°18' W 123°08'0 0.0
2017-Sep-29 00:00N 49°18' W 123°08'0 0.0
2017-Sep-28 23:30N 49°18' W 123°08'0 0.0
2017-Sep-28 23:00N 49°18' W 123°08'0 0.0
2017-Sep-28 22:30N 49°18' W 123°08'0 0.0
2017-Sep-28 22:01N 49°18' W 123°08'0 0.0
2017-Sep-28 21:31N 49°18' W 123°08'1 2.4
2017-Sep-28 21:01N 49°19' W 123°08'5 9.3
2017-Sep-28 20:31N 49°18' W 123°15'4 8.7
2017-Sep-28 20:00N 49°14' W 123°18'5 9.2
2017-Sep-28 19:29N 49°09' W 123°19'5 9.3
2017-Sep-28 19:00N 49°05' W 123°20'5 9.4
2017-Sep-28 18:30N 49°01' W 123°15'5 9.9
2017-Sep-28 18:00N 48°58' W 123°10'5 9.4
2017-Sep-28 17:30N 48°55' W 123°04'5 9.5
2017-Sep-28 17:01N 48°52' W 122°59'12 9.7
2017-Sep-28 15:45N 48°44' W 122°45'2 9.9
2017-Sep-28 15:30N 48°42' W 122°43'5 9.0
2017-Sep-28 15:00N 48°38' W 122°39'4 8.8
2017-Sep-28 14:31N 48°34' W 122°36'3 0.2
2017-Sep-27 21:01N 48°31' W 122°38'0 7.2
2017-Sep-27 20:58N 48°31' W 122°39'4 7.7
2017-Sep-27 20:29N 48°29' W 122°43'32 8.3
2017-Sep-27 16:39N 47°58' W 122°34'2 8.6
2017-Sep-27 16:29N 47°57' W 122°32'4 8.6
2017-Sep-27 16:01N 47°54' W 122°28'5 9.3
2017-Sep-27 15:31N 47°49' W 122°26'5 9.3
2017-Sep-27 15:00N 47°45' W 122°25'4 9.1
2017-Sep-27 14:31N 47°40' W 122°26'3 6.7
2017-Sep-27 14:01N 47°38' W 122°23'0 0.0
2017-Sep-27 13:30N 47°38' W 122°23'0 0.0
2017-Sep-27 13:01N 47°38' W 122°23'0 0.0
2017-Sep-27 12:30N 47°38' W 122°23'0 0.0
2017-Sep-27 12:01N 47°38' W 122°23'0 0.0
2017-Sep-27 11:31N 47°38' W 122°23'0 0.0
2017-Sep-27 11:01N 47°38' W 122°23'0 0.0
2017-Sep-27 10:30N 47°38' W 122°23'0 0.0
2017-Sep-27 10:01N 47°38' W 122°23'0 0.0
2017-Sep-27 09:30N 47°38' W 122°23'0 0.0
2017-Sep-27 09:00N 47°38' W 122°23'0 0.0
2017-Sep-27 08:30N 47°38' W 122°23'0 0.0
2017-Sep-27 08:00N 47°38' W 122°23'0 0.0
2017-Sep-27 07:30N 47°38' W 122°23'0 0.0
2017-Sep-27 07:00N 47°38' W 122°23'0 0.0
2017-Sep-27 06:30N 47°38' W 122°23'0 0.0
2017-Sep-27 06:01N 47°38' W 122°23'0 0.0
2017-Sep-27 05:30N 47°38' W 122°23'0 0.0
2017-Sep-27 05:00N 47°38' W 122°23'0 0.0
2017-Sep-27 04:30N 47°38' W 122°23'0 0.0
2017-Sep-27 04:00N 47°38' W 122°23'0 0.0
2017-Sep-27 03:30N 47°38' W 122°23'0 0.0
2017-Sep-27 03:00N 47°38' W 122°23'0 0.0
2017-Sep-27 02:30N 47°38' W 122°23'0 0.0
2017-Sep-27 02:00N 47°38' W 122°23'0 0.0
2017-Sep-27 01:30N 47°38' W 122°23'0 0.0
2017-Sep-27 01:00N 47°38' W 122°23'0 0.0
2017-Sep-27 00:30N 47°38' W 122°23'0 0.0
2017-Sep-27 00:00N 47°38' W 122°23'0 0.0
2017-Sep-26 23:30N 47°38' W 122°23'3 5.2
2017-Sep-26 23:00N 47°39' W 122°26'2 3.7
2017-Sep-26 22:29N 47°40' W 122°24'2 4.4
2017-Sep-26 22:00N 47°39' W 122°21'2 3.8
2017-Sep-26 21:23N 47°39' W 122°18'1 1.2
2017-Sep-26 20:23N 47°39' W 122°19'1 2.6
2017-Sep-26 20:00N 47°39' W 122°20'2 4.9
2017-Sep-26 19:30N 47°40' W 122°23'1 0.9
2017-Sep-26 18:56N 47°40' W 122°24'2 3.8
2017-Sep-26 18:30N 47°39' W 122°26'3 5.4
2017-Sep-26 18:01N 47°38' W 122°23'0 0.0
2017-Sep-26 17:30N 47°38' W 122°23'0 0.0
2017-Sep-26 17:00N 47°38' W 122°23'0 0.0
2017-Sep-26 16:31N 47°38' W 122°23'0 0.0
2017-Sep-26 16:00N 47°38' W 122°23'0 0.0
2017-Sep-26 15:30N 47°38' W 122°23'0 0.0
2017-Sep-26 15:00N 47°38' W 122°23'0 0.0
2017-Sep-26 14:31N 47°38' W 122°23'0 0.0
2017-Sep-26 14:01N 47°38' W 122°23'0 0.0
2017-Sep-26 13:30N 47°38' W 122°23'0 0.0
2017-Sep-26 13:00N 47°38' W 122°23'0 0.0
2017-Sep-26 12:31N 47°38' W 122°23'0 0.0
2017-Sep-26 12:00N 47°38' W 122°23'0 0.0
2017-Sep-26 11:30N 47°38' W 122°23'0 0.0
2017-Sep-26 11:00N 47°38' W 122°23'0 0.0
2017-Sep-26 10:31N 47°38' W 122°23'0 0.0
2017-Sep-26 10:00N 47°38' W 122°23'0 0.0
2017-Sep-26 09:30N 47°38' W 122°23'0 0.0
2017-Sep-26 09:00N 47°38' W 122°23'0 0.0
2017-Sep-26 08:30N 47°38' W 122°23'0 0.0
2017-Sep-26 08:00N 47°38' W 122°23'0 0.0
2017-Sep-26 07:30N 47°38' W 122°23'0 0.0
2017-Sep-26 07:00N 47°38' W 122°23'0 0.0
2017-Sep-26 06:30N 47°38' W 122°23'0 0.0
2017-Sep-26 06:01N 47°38' W 122°23'0 0.0
2017-Sep-26 05:31N 47°38' W 122°23'0 0.0
2017-Sep-26 05:00N 47°38' W 122°23'0 0.0
2017-Sep-26 04:30N 47°38' W 122°23'0 0.0
2017-Sep-26 04:01N 47°38' W 122°23'0 0.0
2017-Sep-26 03:30N 47°38' W 122°23'0 0.0
2017-Sep-26 03:01N 47°38' W 122°23'0 0.0
2017-Sep-26 02:31N 47°38' W 122°23'0 0.0
2017-Sep-26 02:00N 47°38' W 122°23'0 0.0
2017-Sep-26 01:30N 47°38' W 122°23'0 0.0
2017-Sep-26 01:00N 47°38' W 122°23'0 0.0
2017-Sep-26 00:31N 47°38' W 122°23'0 0.0
2017-Sep-26 00:00N 47°38' W 122°23'0 0.0
2017-Sep-25 23:30N 47°38' W 122°23'0 0.0
2017-Sep-25 23:01N 47°38' W 122°23'0 0.0
2017-Sep-25 22:31N 47°38' W 122°23'0 0.0
2017-Sep-25 22:01N 47°38' W 122°23'0 0.0
2017-Sep-25 21:30N 47°38' W 122°23'0 0.0
2017-Sep-25 21:00N 47°38' W 122°23'0 0.0
2017-Sep-25 20:30N 47°38' W 122°23'0 0.0
2017-Sep-25 20:01N 47°38' W 122°23'0 0.0
2017-Sep-25 19:30N 47°38' W 122°23'0 0.0
2017-Sep-25 19:01N 47°38' W 122°23'0 0.0
2017-Sep-25 18:30N 47°38' W 122°23'0 0.0
2017-Sep-25 18:00N 47°38' W 122°23'0 0.0
2017-Sep-25 17:30N 47°38' W 122°23'0 0.0
2017-Sep-25 17:00N 47°38' W 122°23'0 0.0
2017-Sep-25 16:30N 47°38' W 122°23'0 0.0
2017-Sep-25 16:00N 47°38' W 122°23'0 0.0
2017-Sep-25 15:31N 47°38' W 122°23'0 0.0
2017-Sep-25 15:01N 47°38' W 122°23'0 0.0
2017-Sep-25 14:31N 47°38' W 122°23'0 0.0
2017-Sep-25 14:01N 47°38' W 122°23'0 0.0
2017-Sep-25 13:30N 47°38' W 122°23'0 0.0
2017-Sep-25 13:00N 47°38' W 122°23'0 0.0
2017-Sep-25 12:30N 47°38' W 122°23'0 0.0
2017-Sep-25 12:00N 47°38' W 122°23'0 0.0
2017-Sep-25 11:30N 47°38' W 122°23'0 0.0
2017-Sep-25 11:00N 47°38' W 122°23'0 0.0
2017-Sep-25 10:31N 47°38' W 122°23'0 0.0
2017-Sep-25 10:00N 47°38' W 122°23'0 0.0
2017-Sep-25 09:31N 47°38' W 122°23'0 0.0
2017-Sep-25 09:01N 47°38' W 122°23'0 0.0
2017-Sep-25 08:31N 47°38' W 122°23'0 0.0
2017-Sep-25 08:00N 47°38' W 122°23'0 0.0
2017-Sep-25 07:30N 47°38' W 122°23'0 0.0
2017-Sep-25 07:00N 47°38' W 122°23'0 0.0
2017-Sep-25 06:30N 47°38' W 122°23'0 0.0
2017-Sep-25 06:00N 47°38' W 122°23'0 0.0
2017-Sep-25 05:30N 47°38' W 122°23'0 0.0
2017-Sep-25 05:01N 47°38' W 122°23'0 0.0
2017-Sep-25 04:31N 47°38' W 122°23'0 0.0
2017-Sep-25 04:00N 47°38' W 122°23'0 0.0
2017-Sep-25 03:30N 47°38' W 122°23'0 0.0
2017-Sep-25 03:00N 47°38' W 122°23'0 0.0
2017-Sep-25 02:30N 47°38' W 122°23'0 0.0
2017-Sep-25 02:00N 47°38' W 122°23'0 0.0
2017-Sep-25 01:30N 47°38' W 122°23'0 0.0
2017-Sep-25 01:00N 47°38' W 122°23'0 0.0
2017-Sep-25 00:30N 47°38' W 122°23'0 0.0
2017-Sep-25 00:01N 47°38' W 122°23'0 0.0
2017-Sep-24 23:30N 47°38' W 122°23'0 0.0
2017-Sep-24 23:00N 47°38' W 122°23'0 0.0
2017-Sep-24 22:30N 47°38' W 122°23'0 0.0
2017-Sep-24 22:00N 47°38' W 122°23'0 0.0
2017-Sep-24 21:30N 47°38' W 122°23'0 0.0
2017-Sep-24 21:01N 47°38' W 122°23'0 0.0
2017-Sep-24 20:31N 47°38' W 122°23'0 0.0
2017-Sep-24 20:00N 47°38' W 122°23'0 0.0
2017-Sep-24 19:30N 47°38' W 122°23'0 0.0
2017-Sep-24 19:00N 47°38' W 122°23'0 0.0
2017-Sep-24 18:31N 47°38' W 122°23'0 0.0
2017-Sep-24 18:00N 47°38' W 122°23'0 0.0
2017-Sep-24 17:31N 47°38' W 122°23'0 0.0
2017-Sep-24 17:01N 47°38' W 122°23'0 0.0
2017-Sep-24 16:31N 47°38' W 122°23'1 2.7
2017-Sep-24 16:00N 47°38' W 122°25'3 6.2
2017-Sep-24 15:30N 47°41' W 122°25'0 0.5
2017-Sep-24 15:00N 47°41' W 122°24'0 0.0
2017-Sep-24 14:30N 47°41' W 122°24'0 0.0
2017-Sep-24 14:01N 47°41' W 122°24'0 0.0
2017-Sep-24 13:31N 47°41' W 122°24'0 0.0
2017-Sep-24 13:00N 47°41' W 122°24'0 0.0
2017-Sep-24 12:30N 47°41' W 122°24'0 0.0
2017-Sep-24 12:00N 47°41' W 122°24'0 0.0
2017-Sep-24 11:30N 47°41' W 122°24'0 0.0
2017-Sep-24 11:00N 47°41' W 122°24'0 0.0
2017-Sep-24 10:31N 47°41' W 122°24'0 0.0
2017-Sep-24 10:01N 47°41' W 122°24'0 0.0
2017-Sep-24 09:31N 47°41' W 122°24'0 0.0
2017-Sep-24 09:01N 47°41' W 122°24'0 0.0
2017-Sep-24 08:31N 47°41' W 122°24'0 0.0
2017-Sep-24 08:01N 47°41' W 122°24'0 0.0
2017-Sep-24 07:31N 47°41' W 122°24'0 0.0
2017-Sep-24 07:01N 47°41' W 122°24'0 0.0
2017-Sep-24 06:30N 47°41' W 122°24'0 0.0
2017-Sep-24 06:00N 47°41' W 122°24'0 0.0
2017-Sep-24 05:30N 47°41' W 122°24'0 0.0
2017-Sep-24 05:01N 47°41' W 122°24'0 0.0
2017-Sep-24 04:30N 47°41' W 122°24'0 0.0
2017-Sep-24 04:00N 47°41' W 122°24'0 0.0
2017-Sep-24 03:30N 47°41' W 122°24'0 0.0
2017-Sep-24 03:00N 47°41' W 122°24'0 0.0
2017-Sep-24 02:31N 47°41' W 122°24'0 0.0
2017-Sep-24 02:01N 47°41' W 122°24'0 0.0
2017-Sep-24 01:31N 47°41' W 122°24'0 0.0
2017-Sep-24 01:00N 47°41' W 122°24'0 0.0
2017-Sep-24 00:31N 47°41' W 122°24'0 0.0
2017-Sep-24 00:00N 47°41' W 122°24'0 0.0
2017-Sep-23 23:30N 47°41' W 122°24'0 1.0
2017-Sep-23 23:01N 47°41' W 122°25'5 9.1
2017-Sep-23 22:30N 47°45' W 122°26'5 9.5
2017-Sep-23 22:01N 47°50' W 122°26'5 9.5
2017-Sep-23 21:30N 47°54' W 122°28'4 9.0
2017-Sep-23 21:01N 47°58' W 122°33'  
Track history (hours):
 
Tides and Currents Weather Stations Pressure Air Temp Water Temp Dewpoint Dewpoint Depression Visibility Wind Speed Wind Dir Waves Ship Positions

Gitana

Owner: Gitana LLC a Delaware Manager Managed Limited Liability Company, Fresno, CA. More information available from US FCC via Universal Licensing System.

Last reported at 2017-Oct-02 03:29 UTC. Time now 2017-Oct-20 14:32 UTC.
Position N 48°37' W 123°09'.
Warning: this ship's position is 18 days out of date.

Length 23 m; draft 2.5 m.

MMSI: 367504720.

Date/timePositionNaut miles runAvg speedWind from/ knotsBaromVisibWave heightAir tempDewpointWater temp
2017-Oct-02 03:29N 48°37' W 123°09'3 0.4
2017-Oct-01 18:07N 48°38' W 123°14'1 8.1
2017-Oct-01 18:00N 48°38' W 123°12'3 5.0
2017-Oct-01 17:30N 48°37' W 123°09'0 0.0
2017-Oct-01 17:00N 48°37' W 123°09'0 0.0
2017-Oct-01 16:22N 48°37' W 123°09'0 0.4
2017-Oct-01 16:00N 48°37' W 123°09'0 0.0
2017-Oct-01 15:30N 48°37' W 123°09'0 0.0
2017-Oct-01 15:01N 48°37' W 123°09'0 0.0
2017-Oct-01 14:30N 48°37' W 123°09'0 0.0
2017-Oct-01 14:00N 48°37' W 123°09'0 0.0
2017-Oct-01 13:30N 48°37' W 123°09'0 0.0
2017-Oct-01 13:00N 48°37' W 123°09'0 0.0
2017-Oct-01 12:30N 48°37' W 123°09'0 0.0
2017-Oct-01 12:01N 48°37' W 123°09'0 0.0
2017-Oct-01 11:31N 48°37' W 123°09'0 0.0
2017-Oct-01 11:01N 48°37' W 123°09'0 0.0
2017-Oct-01 10:31N 48°37' W 123°09'0 0.0
2017-Oct-01 10:01N 48°37' W 123°09'0 0.0
2017-Oct-01 09:31N 48°37' W 123°09'0 0.0
2017-Oct-01 08:59N 48°37' W 123°09'0 0.0
2017-Oct-01 08:30N 48°37' W 123°09'0 0.0
2017-Oct-01 07:58N 48°37' W 123°09'0 0.0
2017-Oct-01 07:30N 48°37' W 123°09'0 0.0
2017-Oct-01 07:00N 48°37' W 123°09'0 0.0
2017-Oct-01 06:30N 48°37' W 123°09'0 0.0
2017-Oct-01 06:00N 48°37' W 123°09'0 0.0
2017-Oct-01 05:31N 48°37' W 123°09'0 0.0
2017-Oct-01 05:00N 48°37' W 123°09'0 0.0
2017-Oct-01 04:31N 48°37' W 123°09'0 0.0
2017-Oct-01 04:00N 48°37' W 123°09'0 0.0
2017-Oct-01 03:30N 48°37' W 123°09'0 0.0
2017-Oct-01 03:00N 48°37' W 123°09'41 1.6
2017-Sep-30 02:00N 49°18' W 123°08'0 0.0
2017-Sep-30 01:30N 49°18' W 123°08'0 0.0
2017-Sep-30 01:00N 49°18' W 123°08'0 0.0
2017-Sep-30 00:30N 49°18' W 123°08'0 0.0
2017-Sep-30 00:00N 49°18' W 123°08'0 0.0
2017-Sep-29 23:31N 49°18' W 123°08'0 0.0
2017-Sep-29 23:01N 49°18' W 123°08'0 0.0
2017-Sep-29 22:30N 49°18' W 123°08'0 0.0
2017-Sep-29 22:01N 49°18' W 123°08'0 0.0
2017-Sep-29 21:30N 49°18' W 123°08'0 0.0
2017-Sep-29 21:00N 49°18' W 123°08'0 0.0
2017-Sep-29 20:31N 49°18' W 123°08'0 0.0
2017-Sep-29 20:01N 49°18' W 123°08'0 0.0
2017-Sep-29 19:31N 49°18' W 123°08'0 0.0
2017-Sep-29 19:00N 49°18' W 123°08'0 0.0
2017-Sep-29 18:30N 49°18' W 123°08'0 0.0
2017-Sep-29 18:00N 49°18' W 123°08'0 0.0
2017-Sep-29 17:30N 49°18' W 123°08'0 0.0
2017-Sep-29 17:00N 49°18' W 123°08'0 0.0
2017-Sep-29 16:31N 49°18' W 123°08'0 0.0
2017-Sep-29 16:00N 49°18' W 123°08'0 0.0
2017-Sep-29 15:31N 49°18' W 123°08'0 0.0
2017-Sep-29 15:00N 49°18' W 123°08'0 0.0
2017-Sep-29 14:30N 49°18' W 123°08'0 0.0
2017-Sep-29 14:00N 49°18' W 123°08'0 0.0
2017-Sep-29 13:30N 49°18' W 123°08'0 0.0
2017-Sep-29 13:01N 49°18' W 123°08'0 0.0
2017-Sep-29 12:31N 49°18' W 123°08'0 0.0
2017-Sep-29 12:00N 49°18' W 123°08'0 0.0
2017-Sep-29 11:30N 49°18' W 123°08'0 0.0
2017-Sep-29 11:01N 49°18' W 123°08'0 0.0
2017-Sep-29 10:31N 49°18' W 123°08'0 0.0
2017-Sep-29 10:00N 49°18' W 123°08'0 0.0
2017-Sep-29 09:31N 49°18' W 123°08'0 0.0
2017-Sep-29 09:01N 49°18' W 123°08'0 0.0
2017-Sep-29 08:30N 49°18' W 123°08'0 0.0
2017-Sep-29 08:00N 49°18' W 123°08'0 0.0
2017-Sep-29 07:30N 49°18' W 123°08'0 0.0
2017-Sep-29 07:00N 49°18' W 123°08'0 0.0
2017-Sep-29 06:30N 49°18' W 123°08'0 0.0
2017-Sep-29 06:01N 49°18' W 123°08'0 0.0
2017-Sep-29 05:30N 49°18' W 123°08'0 0.0
2017-Sep-29 05:01N 49°18' W 123°08'0 0.0
2017-Sep-29 04:31N 49°18' W 123°08'0 0.0
2017-Sep-29 04:00N 49°18' W 123°08'0 0.0
2017-Sep-29 03:31N 49°18' W 123°08'0 0.0
2017-Sep-29 03:01N 49°18' W 123°08'0 0.0
2017-Sep-29 02:31N 49°18' W 123°08'0 0.0
2017-Sep-29 02:01N 49°18' W 123°08'0 0.0
2017-Sep-29 01:30N 49°18' W 123°08'0 0.0
2017-Sep-29 01:00N 49°18' W 123°08'0 0.0
2017-Sep-29 00:31N 49°18' W 123°08'0 0.0
2017-Sep-29 00:00N 49°18' W 123°08'0 0.0
2017-Sep-28 23:30N 49°18' W 123°08'0 0.0
2017-Sep-28 23:00N 49°18' W 123°08'0 0.0
2017-Sep-28 22:30N 49°18' W 123°08'0 0.0
2017-Sep-28 22:01N 49°18' W 123°08'0 0.0
2017-Sep-28 21:31N 49°18' W 123°08'1 2.4
2017-Sep-28 21:01N 49°19' W 123°08'5 9.3
2017-Sep-28 20:31N 49°18' W 123°15'4 8.7
2017-Sep-28 20:00N 49°14' W 123°18'5 9.2
2017-Sep-28 19:29N 49°09' W 123°19'5 9.3
2017-Sep-28 19:00N 49°05' W 123°20'5 9.4
2017-Sep-28 18:30N 49°01' W 123°15'5 9.9
2017-Sep-28 18:00N 48°58' W 123°10'5 9.4
2017-Sep-28 17:30N 48°55' W 123°04'5 9.5
2017-Sep-28 17:01N 48°52' W 122°59'12 9.7
2017-Sep-28 15:45N 48°44' W 122°45'2 9.9
2017-Sep-28 15:30N 48°42' W 122°43'5 9.0
2017-Sep-28 15:00N 48°38' W 122°39'4 8.8
2017-Sep-28 14:31N 48°34' W 122°36'3 0.2
2017-Sep-27 21:01N 48°31' W 122°38'0 7.2
2017-Sep-27 20:58N 48°31' W 122°39'4 7.7
2017-Sep-27 20:29N 48°29' W 122°43'32 8.3
2017-Sep-27 16:39N 47°58' W 122°34'2 8.6
2017-Sep-27 16:29N 47°57' W 122°32'4 8.6
2017-Sep-27 16:01N 47°54' W 122°28'5 9.3
2017-Sep-27 15:31N 47°49' W 122°26'5 9.3
2017-Sep-27 15:00N 47°45' W 122°25'4 9.1
2017-Sep-27 14:31N 47°40' W 122°26'3 6.7
2017-Sep-27 14:01N 47°38' W 122°23'0 0.0
2017-Sep-27 13:30N 47°38' W 122°23'0 0.0
2017-Sep-27 13:01N 47°38' W 122°23'0 0.0
2017-Sep-27 12:30N 47°38' W 122°23'0 0.0
2017-Sep-27 12:01N 47°38' W 122°23'0 0.0
2017-Sep-27 11:31N 47°38' W 122°23'0 0.0
2017-Sep-27 11:01N 47°38' W 122°23'0 0.0
2017-Sep-27 10:30N 47°38' W 122°23'0 0.0
2017-Sep-27 10:01N 47°38' W 122°23'0 0.0
2017-Sep-27 09:30N 47°38' W 122°23'0 0.0
2017-Sep-27 09:00N 47°38' W 122°23'0 0.0
2017-Sep-27 08:30N 47°38' W 122°23'0 0.0
2017-Sep-27 08:00N 47°38' W 122°23'0 0.0
2017-Sep-27 07:30N 47°38' W 122°23'0 0.0
2017-Sep-27 07:00N 47°38' W 122°23'0 0.0
2017-Sep-27 06:30N 47°38' W 122°23'0 0.0
2017-Sep-27 06:01N 47°38' W 122°23'0 0.0
2017-Sep-27 05:30N 47°38' W 122°23'0 0.0
2017-Sep-27 05:00N 47°38' W 122°23'0 0.0
2017-Sep-27 04:30N 47°38' W 122°23'0 0.0
2017-Sep-27 04:00N 47°38' W 122°23'0 0.0
2017-Sep-27 03:30N 47°38' W 122°23'0 0.0
2017-Sep-27 03:00N 47°38' W 122°23'0 0.0
2017-Sep-27 02:30N 47°38' W 122°23'0 0.0
2017-Sep-27 02:00N 47°38' W 122°23'0 0.0
2017-Sep-27 01:30N 47°38' W 122°23'0 0.0
2017-Sep-27 01:00N 47°38' W 122°23'0 0.0
2017-Sep-27 00:30N 47°38' W 122°23'0 0.0
2017-Sep-27 00:00N 47°38' W 122°23'0 0.0
2017-Sep-26 23:30N 47°38' W 122°23'3 5.2
2017-Sep-26 23:00N 47°39' W 122°26'2 3.7
2017-Sep-26 22:29N 47°40' W 122°24'2 4.4
2017-Sep-26 22:00N 47°39' W 122°21'2 3.8
2017-Sep-26 21:23N 47°39' W 122°18'1 1.2
2017-Sep-26 20:23N 47°39' W 122°19'1 2.6
2017-Sep-26 20:00N 47°39' W 122°20'2 4.9
2017-Sep-26 19:30N 47°40' W 122°23'1 0.9
2017-Sep-26 18:56N 47°40' W 122°24'2 3.8
2017-Sep-26 18:30N 47°39' W 122°26'3 5.4
2017-Sep-26 18:01N 47°38' W 122°23'0 0.0
2017-Sep-26 17:30N 47°38' W 122°23'0 0.0
2017-Sep-26 17:00N 47°38' W 122°23'0 0.0
2017-Sep-26 16:31N 47°38' W 122°23'0 0.0
2017-Sep-26 16:00N 47°38' W 122°23'0 0.0
2017-Sep-26 15:30N 47°38' W 122°23'0 0.0
2017-Sep-26 15:00N 47°38' W 122°23'0 0.0
2017-Sep-26 14:31N 47°38' W 122°23'0 0.0
2017-Sep-26 14:01N 47°38' W 122°23'0 0.0
2017-Sep-26 13:30N 47°38' W 122°23'0 0.0
2017-Sep-26 13:00N 47°38' W 122°23'0 0.0
2017-Sep-26 12:31N 47°38' W 122°23'0 0.0
2017-Sep-26 12:00N 47°38' W 122°23'0 0.0
2017-Sep-26 11:30N 47°38' W 122°23'0 0.0
2017-Sep-26 11:00N 47°38' W 122°23'0 0.0
2017-Sep-26 10:31N 47°38' W 122°23'0 0.0
2017-Sep-26 10:00N 47°38' W 122°23'0 0.0
2017-Sep-26 09:30N 47°38' W 122°23'0 0.0
2017-Sep-26 09:00N 47°38' W 122°23'0 0.0
2017-Sep-26 08:30N 47°38' W 122°23'0 0.0
2017-Sep-26 08:00N 47°38' W 122°23'0 0.0
2017-Sep-26 07:30N 47°38' W 122°23'0 0.0
2017-Sep-26 07:00N 47°38' W 122°23'0 0.0
2017-Sep-26 06:30N 47°38' W 122°23'0 0.0
2017-Sep-26 06:01N 47°38' W 122°23'0 0.0
2017-Sep-26 05:31N 47°38' W 122°23'0 0.0
2017-Sep-26 05:00N 47°38' W 122°23'0 0.0
2017-Sep-26 04:30N 47°38' W 122°23'0 0.0
2017-Sep-26 04:01N 47°38' W 122°23'0 0.0
2017-Sep-26 03:30N 47°38' W 122°23'0 0.0
2017-Sep-26 03:01N 47°38' W 122°23'0 0.0
2017-Sep-26 02:31N 47°38' W 122°23'0 0.0
2017-Sep-26 02:00N 47°38' W 122°23'0 0.0
2017-Sep-26 01:30N 47°38' W 122°23'0 0.0
2017-Sep-26 01:00N 47°38' W 122°23'0 0.0
2017-Sep-26 00:31N 47°38' W 122°23'0 0.0
2017-Sep-26 00:00N 47°38' W 122°23'0 0.0
2017-Sep-25 23:30N 47°38' W 122°23'0 0.0
2017-Sep-25 23:01N 47°38' W 122°23'0 0.0
2017-Sep-25 22:31N 47°38' W 122°23'0 0.0
2017-Sep-25 22:01N 47°38' W 122°23'0 0.0
2017-Sep-25 21:30N 47°38' W 122°23'0 0.0
2017-Sep-25 21:00N 47°38' W 122°23'0 0.0
2017-Sep-25 20:30N 47°38' W 122°23'0 0.0
2017-Sep-25 20:01N 47°38' W 122°23'0 0.0
2017-Sep-25 19:30N 47°38' W 122°23'0 0.0
2017-Sep-25 19:01N 47°38' W 122°23'0 0.0
2017-Sep-25 18:30N 47°38' W 122°23'0 0.0
2017-Sep-25 18:00N 47°38' W 122°23'0 0.0
2017-Sep-25 17:30N 47°38' W 122°23'0 0.0
2017-Sep-25 17:00N 47°38' W 122°23'0 0.0
2017-Sep-25 16:30N 47°38' W 122°23'0 0.0
2017-Sep-25 16:00N 47°38' W 122°23'0 0.0
2017-Sep-25 15:31N 47°38' W 122°23'0 0.0
2017-Sep-25 15:01N 47°38' W 122°23'0 0.0
2017-Sep-25 14:31N 47°38' W 122°23'0 0.0
2017-Sep-25 14:01N 47°38' W 122°23'0 0.0
2017-Sep-25 13:30N 47°38' W 122°23'0 0.0
2017-Sep-25 13:00N 47°38' W 122°23'0 0.0
2017-Sep-25 12:30N 47°38' W 122°23'0 0.0
2017-Sep-25 12:00N 47°38' W 122°23'0 0.0
2017-Sep-25 11:30N 47°38' W 122°23'0 0.0
2017-Sep-25 11:00N 47°38' W 122°23'0 0.0
2017-Sep-25 10:31N 47°38' W 122°23'0 0.0
2017-Sep-25 10:00N 47°38' W 122°23'0 0.0
2017-Sep-25 09:31N 47°38' W 122°23'0 0.0
2017-Sep-25 09:01N 47°38' W 122°23'0 0.0
2017-Sep-25 08:31N 47°38' W 122°23'0 0.0
2017-Sep-25 08:00N 47°38' W 122°23'0 0.0
2017-Sep-25 07:30N 47°38' W 122°23'0 0.0
2017-Sep-25 07:00N 47°38' W 122°23'0 0.0
2017-Sep-25 06:30N 47°38' W 122°23'0 0.0
2017-Sep-25 06:00N 47°38' W 122°23'0 0.0
2017-Sep-25 05:30N 47°38' W 122°23'0 0.0
2017-Sep-25 05:01N 47°38' W 122°23'0 0.0
2017-Sep-25 04:31N 47°38' W 122°23'0 0.0
2017-Sep-25 04:00N 47°38' W 122°23'0 0.0
2017-Sep-25 03:30N 47°38' W 122°23'0 0.0
2017-Sep-25 03:00N 47°38' W 122°23'0 0.0
2017-Sep-25 02:30N 47°38' W 122°23'0 0.0
2017-Sep-25 02:00N 47°38' W 122°23'0 0.0
2017-Sep-25 01:30N 47°38' W 122°23'0 0.0
2017-Sep-25 01:00N 47°38' W 122°23'0 0.0
2017-Sep-25 00:30N 47°38' W 122°23'0 0.0
2017-Sep-25 00:01N 47°38' W 122°23'0 0.0
2017-Sep-24 23:30N 47°38' W 122°23'0 0.0
2017-Sep-24 23:00N 47°38' W 122°23'0 0.0
2017-Sep-24 22:30N 47°38' W 122°23'0 0.0
2017-Sep-24 22:00N 47°38' W 122°23'0 0.0
2017-Sep-24 21:30N 47°38' W 122°23'0 0.0
2017-Sep-24 21:01N 47°38' W 122°23'0 0.0
2017-Sep-24 20:31N 47°38' W 122°23'0 0.0
2017-Sep-24 20:00N 47°38' W 122°23'0 0.0
2017-Sep-24 19:30N 47°38' W 122°23'0 0.0
2017-Sep-24 19:00N 47°38' W 122°23'0 0.0
2017-Sep-24 18:31N 47°38' W 122°23'0 0.0
2017-Sep-24 18:00N 47°38' W 122°23'0 0.0
2017-Sep-24 17:31N 47°38' W 122°23'0 0.0
2017-Sep-24 17:01N 47°38' W 122°23'0 0.0
2017-Sep-24 16:31N 47°38' W 122°23'1 2.7
2017-Sep-24 16:00N 47°38' W 122°25'3 6.2
2017-Sep-24 15:30N 47°41' W 122°25'0 0.5
2017-Sep-24 15:00N 47°41' W 122°24'0 0.0
2017-Sep-24 14:30N 47°41' W 122°24'0 0.0
2017-Sep-24 14:01N 47°41' W 122°24'0 0.0
2017-Sep-24 13:31N 47°41' W 122°24'0 0.0
2017-Sep-24 13:00N 47°41' W 122°24'0 0.0
2017-Sep-24 12:30N 47°41' W 122°24'0 0.0
2017-Sep-24 12:00N 47°41' W 122°24'0 0.0
2017-Sep-24 11:30N 47°41' W 122°24'0 0.0
2017-Sep-24 11:00N 47°41' W 122°24'0 0.0
2017-Sep-24 10:31N 47°41' W 122°24'0 0.0
2017-Sep-24 10:01N 47°41' W 122°24'0 0.0
2017-Sep-24 09:31N 47°41' W 122°24'0 0.0
2017-Sep-24 09:01N 47°41' W 122°24'0 0.0
2017-Sep-24 08:31N 47°41' W 122°24'0 0.0
2017-Sep-24 08:01N 47°41' W 122°24'0 0.0
2017-Sep-24 07:31N 47°41' W 122°24'0 0.0
2017-Sep-24 07:01N 47°41' W 122°24'0 0.0
2017-Sep-24 06:30N 47°41' W 122°24'0 0.0
2017-Sep-24 06:00N 47°41' W 122°24'0 0.0
2017-Sep-24 05:30N 47°41' W 122°24'0 0.0
2017-Sep-24 05:01N 47°41' W 122°24'0 0.0
2017-Sep-24 04:30N 47°41' W 122°24'0 0.0
2017-Sep-24 04:00N 47°41' W 122°24'0 0.0
2017-Sep-24 03:30N 47°41' W 122°24'0 0.0
2017-Sep-24 03:00N 47°41' W 122°24'0 0.0
2017-Sep-24 02:31N 47°41' W 122°24'0 0.0
2017-Sep-24 02:01N 47°41' W 122°24'0 0.0
2017-Sep-24 01:31N 47°41' W 122°24'0 0.0
2017-Sep-24 01:00N 47°41' W 122°24'0 0.0
2017-Sep-24 00:31N 47°41' W 122°24'0 0.0
2017-Sep-24 00:00N 47°41' W 122°24'0 0.0
2017-Sep-23 23:30N 47°41' W 122°24'0 1.0
2017-Sep-23 23:01N 47°41' W 122°25'5 9.1
2017-Sep-23 22:30N 47°45' W 122°26'5 9.5
2017-Sep-23 22:01N 47°50' W 122°26'5 9.5
2017-Sep-23 21:30N 47°54' W 122°28'4 9.0
2017-Sep-23 21:01N 47°58' W 122°33'  

Dump ship's entire track history